Time;durP1;ratioP1;P1;durP2;ratioP2;P2;SDS_P1;SDS_P2;PMS_P1;PMS_P2;Temp;Humidity;BMP_temperature;BMP_pressure;BME280_temperature;BME280_humidity;BME280_pressure;Samples;Min_cycle;Max_cycle;Signal;HPM_P1;HPM_P2
2022/03/17 00:00:15;;;;;;;37.95;21.55;;;10.20;99.90;;;;;;4849719;29;20053;-72
2022/03/17 00:02:42;;;;;;;34.60;21.40;;;10.20;99.90;;;;;;4864770;29;20045;-71
2022/03/17 00:05:11;;;;;;;30.83;20.67;;;10.20;99.90;;;;;;4865369;29;20041;-73
2022/03/17 00:07:38;;;;;;;33.70;21.42;;;10.20;99.90;;;;;;4864983;29;20046;-74
2022/03/17 00:10:09;;;;;;;36.20;22.98;;;10.20;99.90;;;;;;4880453;29;20045;-72
2022/03/17 00:12:35;;;;;;;35.45;22.35;;;10.10;99.90;;;;;;4865450;29;20094;-72
2022/03/17 00:15:01;;;;;;;35.65;21.95;;;10.10;99.90;;;;;;4880484;29;20045;-73
2022/03/17 00:17:27;;;;;;;35.15;23.00;;;10.10;99.90;;;;;;4833613;29;20049;-74
2022/03/17 00:19:54;;;;;;;35.08;22.08;;;10.10;99.90;;;;;;4866127;29;20101;-74
2022/03/17 00:22:20;;;;;;;40.45;22.92;;;10.10;99.90;;;;;;4882700;29;20071;-73
2022/03/17 00:24:49;;;;;;;36.55;22.55;;;10.10;99.90;;;;;;4884644;29;20053;-73
2022/03/17 00:27:14;;;;;;;38.20;22.75;;;10.10;99.90;;;;;;4868908;29;20041;-72
2022/03/17 00:29:41;;;;;;;35.70;22.70;;;10.10;99.90;;;;;;4869703;29;20038;-73
2022/03/17 00:32:08;;;;;;;36.28;22.40;;;10.10;99.90;;;;;;4869074;29;20139;-73
2022/03/17 00:35:35;;;;;;;39.88;23.48;;;10.10;99.90;;;;;;4867868;29;20038;-73
2022/03/17 00:37:23;;;;;;;36.60;22.10;;;10.10;99.90;;;;;;4867907;29;20038;-73
2022/03/17 00:39:49;;;;;;;38.53;23.17;;;10.10;99.90;;;;;;4883491;29;20050;-73
2022/03/17 00:42:15;;;;;;;38.85;23.52;;;10.10;99.90;;;;;;4868558;29;20030;-72
2022/03/17 00:44:41;;;;;;;36.83;22.80;;;10.10;99.90;;;;;;4868314;29;20049;-73
2022/03/17 00:47:08;;;;;;;39.13;22.83;;;10.10;99.90;;;;;;4852736;29;20045;-73
2022/03/17 00:49:35;;;;;;;36.63;22.70;;;10.10;99.90;;;;;;4867825;29;20034;-71
2022/03/17 00:52:03;;;;;;;39.83;23.85;;;10.10;99.90;;;;;;4867713;29;20064;-73
2022/03/17 00:55:33;;;;;;;35.20;22.75;;;10.00;99.90;;;;;;4852240;29;20053;-72
2022/03/17 00:58:01;;;;;;;39.10;22.58;;;10.10;99.90;;;;;;4867602;29;20046;-72
2022/03/17 01:00:38;;;;;;;36.13;23.02;;;10.00;99.90;;;;;;4867584;29;20032;-73
2022/03/17 01:03:05;;;;;;;37.13;23.55;;;10.00;99.90;;;;;;4868178;29;20048;-73
2022/03/17 01:05:31;;;;;;;35.83;23.40;;;10.00;99.90;;;;;;4867324;29;20059;-73
2022/03/17 01:07:58;;;;;;;38.03;23.23;;;10.00;99.90;;;;;;4867058;29;20071;-72
2022/03/17 01:10:24;;;;;;;41.90;23.60;;;10.00;99.90;;;;;;4867491;29;20050;-73
2022/03/17 01:12:50;;;;;;;38.80;23.45;;;10.00;99.90;;;;;;4867782;29;20049;-72
2022/03/17 01:15:18;;;;;;;37.88;23.45;;;10.00;99.90;;;;;;4867395;29;20038;-73
2022/03/17 01:17:45;;;;;;;35.13;22.95;;;10.00;99.90;;;;;;4867295;29;20038;-72
2022/03/17 01:20:11;;;;;;;38.15;23.38;;;10.00;99.90;;;;;;4867395;29;20026;-73
2022/03/17 01:22:38;;;;;;;35.70;23.02;;;10.00;99.90;;;;;;4851978;29;20034;-73
2022/03/17 01:25:06;;;;;;;39.13;23.35;;;10.00;99.90;;;;;;4866999;29;20034;-72
2022/03/17 01:27:34;;;;;;;37.85;23.30;;;10.00;99.90;;;;;;4867080;29;20034;-73
2022/03/17 01:30:00;;;;;;;36.22;23.40;;;10.00;99.90;;;;;;4867973;29;20037;-72
2022/03/17 01:32:27;;;;;;;37.10;23.00;;;10.00;99.90;;;;;;4881920;29;20022;-72
2022/03/17 01:34:53;;;;;;;34.65;22.20;;;10.00;99.90;;;;;;4865917;29;20500;-71
2022/03/17 01:37:19;;;;;;;34.70;22.48;;;10.00;99.90;;;;;;4882671;29;20106;-73
2022/03/17 01:39:45;;;;;;;34.45;22.85;;;10.00;99.90;;;;;;4867254;29;20049;-72
2022/03/17 01:42:11;;;;;;;37.60;23.50;;;10.00;99.90;;;;;;4867742;29;20042;-71
2022/03/17 01:44:38;;;;;;;35.88;21.80;;;10.00;99.90;;;;;;4866812;29;20427;-71
2022/03/17 01:49:50;;;;;;;37.67;24.23;;;10.00;99.90;;;;;;4866998;29;20078;-73
2022/03/17 01:52:16;;;;;;;34.20;22.67;;;10.10;99.90;;;;;;4881784;29;20079;-73
2022/03/17 01:54:44;;;;;;;36.83;23.80;;;10.10;99.90;;;;;;4882184;29;20046;-73
2022/03/17 01:57:11;;;;;;;35.08;22.52;;;10.10;99.90;;;;;;4867158;29;20038;-73
2022/03/17 01:59:38;;;;;;;41.40;24.00;;;10.10;99.90;;;;;;4865880;29;20040;-73
2022/03/17 02:02:06;;;;;;;37.60;23.27;;;10.10;99.90;;;;;;4865988;29;20048;-72
2022/03/17 02:04:33;;;;;;;39.50;23.67;;;10.10;99.90;;;;;;4866896;29;20066;-73
2022/03/17 02:06:59;;;;;;;38.03;24.13;;;10.10;99.90;;;;;;4866150;29;20042;-71
2022/03/17 02:09:26;;;;;;;39.78;24.50;;;10.10;99.90;;;;;;4881449;29;20041;-72
2022/03/17 02:14:59;;;;;;;41.38;24.42;;;10.10;99.90;;;;;;4866113;29;20033;-73
2022/03/17 02:17:27;;;;;;;41.65;24.35;;;10.00;99.90;;;;;;4865624;29;20046;-71
2022/03/17 02:19:57;;;;;;;37.25;24.70;;;10.00;99.90;;;;;;4866121;29;20040;-71
2022/03/17 02:22:23;;;;;;;40.67;25.13;;;10.00;99.90;;;;;;4881444;29;20042;-72
2022/03/17 02:25:50;;;;;;;40.33;25.05;;;9.90;99.90;;;;;;4866334;29;20053;-73
2022/03/17 02:27:46;;;;;;;38.17;24.65;;;10.00;99.90;;;;;;4865511;29;20042;-72
2022/03/17 02:30:19;;;;;;;38.30;24.63;;;9.90;99.90;;;;;;4866271;29;20086;-72
2022/03/17 02:32:46;;;;;;;39.17;24.35;;;10.00;99.90;;;;;;4865794;29;20080;-73
2022/03/17 02:35:15;;;;;;;39.38;24.38;;;9.90;99.90;;;;;;4865907;29;20046;-71
2022/03/17 02:37:41;;;;;;;37.95;24.67;;;9.90;99.90;;;;;;4866410;29;20030;-73
2022/03/17 02:40:10;;;;;;;36.53;24.35;;;9.90;99.90;;;;;;4866479;29;20102;-72
2022/03/17 02:42:37;;;;;;;39.45;25.33;;;10.00;99.90;;;;;;4850947;29;20077;-72
2022/03/17 02:45:07;;;;;;;39.30;24.40;;;10.00;99.90;;;;;;4878533;29;20052;-73
2022/03/17 02:47:33;;;;;;;39.55;25.48;;;10.00;99.90;;;;;;4866261;29;20108;-73
2022/03/17 02:49:59;;;;;;;39.42;25.65;;;10.00;99.90;;;;;;4880666;29;20041;-71
2022/03/17 02:52:26;;;;;;;36.25;23.85;;;9.90;99.90;;;;;;4865373;29;20069;-72
2022/03/17 02:54:53;;;;;;;36.70;24.00;;;10.00;99.90;;;;;;4849865;29;20050;-73
2022/03/17 02:57:20;;;;;;;36.95;25.02;;;10.10;99.90;;;;;;4866016;29;20037;-73
2022/03/17 02:59:48;;;;;;;36.80;24.48;;;10.10;99.90;;;;;;4865894;29;20041;-72
2022/03/17 03:02:15;;;;;;;38.67;25.50;;;10.10;99.90;;;;;;4864510;29;20038;-73
2022/03/17 03:04:47;;;;;;;36.33;23.80;;;10.10;99.90;;;;;;4865465;29;20105;-73
2022/03/17 03:07:13;;;;;;;39.65;26.15;;;10.10;99.90;;;;;;4881054;29;20038;-73
2022/03/17 03:09:40;;;;;;;41.90;24.15;;;10.20;99.90;;;;;;4865677;29;20049;-72
2022/03/17 03:12:07;;;;;;;35.45;24.63;;;10.10;99.90;;;;;;4864910;29;20037;-73
2022/03/17 03:14:33;;;;;;;39.00;25.63;;;10.20;99.90;;;;;;4880697;29;20038;-73
2022/03/17 03:16:59;;;;;;;38.55;25.50;;;10.20;99.90;;;;;;4880760;29;20038;-72
2022/03/17 03:19:25;;;;;;;40.75;25.67;;;10.20;99.90;;;;;;4865889;29;20049;-71
2022/03/17 03:21:51;;;;;;;36.88;24.45;;;10.20;99.90;;;;;;4865018;29;20048;-73
2022/03/17 03:24:17;;;;;;;37.80;24.38;;;10.20;99.90;;;;;;4880221;29;20034;-73
2022/03/17 03:26:44;;;;;;;40.95;24.90;;;10.10;99.90;;;;;;4865109;29;20037;-73
2022/03/17 03:29:25;;;;;;;37.20;25.60;;;10.20;99.90;;;;;;4865014;29;20038;-73
2022/03/17 03:32:03;;;;;;;38.22;25.15;;;10.20;99.90;;;;;;4880297;29;20069;-71
2022/03/17 03:34:31;;;;;;;35.55;23.80;;;10.20;99.90;;;;;;4865681;29;20030;-74
2022/03/17 03:39:41;;;;;;;38.58;25.35;;;10.20;99.90;;;;;;4865533;29;20066;-71
2022/03/17 03:42:09;;;;;;;38.13;25.20;;;10.20;99.90;;;;;;4865244;29;20030;-73
2022/03/17 03:44:38;;;;;;;40.13;26.27;;;10.20;99.90;;;;;;4865086;29;20048;-72
2022/03/17 03:47:05;;;;;;;38.60;25.40;;;10.20;99.90;;;;;;4865526;29;20038;-73
2022/03/17 03:49:32;;;;;;;40.67;25.35;;;10.20;99.90;;;;;;4863437;29;20038;-73
2022/03/17 03:51:58;;;;;;;35.13;24.42;;;10.20;99.90;;;;;;4864188;29;20085;-72
2022/03/17 03:54:25;;;;;;;36.95;24.27;;;10.30;99.90;;;;;;4865397;29;20041;-74
2022/03/17 03:56:56;;;;;;;37.97;25.70;;;10.20;99.90;;;;;;4865955;29;20052;-72
2022/03/17 03:59:24;;;;;;;38.30;25.30;;;10.30;99.90;;;;;;4868647;29;20033;-72
2022/03/17 04:01:53;;;;;;;36.35;24.55;;;10.20;99.90;;;;;;4869012;29;20041;-73
2022/03/17 04:04:20;;;;;;;39.70;25.33;;;10.30;99.90;;;;;;4883975;29;20037;-73
2022/03/17 04:06:49;;;;;;;36.30;24.23;;;10.30;99.90;;;;;;4883713;29;20044;-73
2022/03/17 04:09:16;;;;;;;38.10;26.15;;;10.30;99.90;;;;;;4868250;29;20050;-72
2022/03/17 04:11:43;;;;;;;38.22;26.50;;;10.30;99.90;;;;;;4883969;29;20062;-73
2022/03/17 04:14:10;;;;;;;38.72;25.48;;;10.30;99.90;;;;;;4853064;29;20101;-73
2022/03/17 04:16:37;;;;;;;38.97;26.55;;;10.30;99.90;;;;;;4868346;29;20066;-73
2022/03/17 04:19:03;;;;;;;40.55;26.45;;;10.40;99.90;;;;;;4868080;29;20049;-73
2022/03/17 04:21:30;;;;;;;37.33;26.48;;;10.40;99.90;;;;;;4868826;29;20042;-72
2022/03/17 04:23:58;;;;;;;43.30;27.42;;;10.40;99.90;;;;;;4868894;29;20042;-73
2022/03/17 04:26:24;;;;;;;41.47;27.80;;;10.50;99.90;;;;;;4868376;29;20102;-72
2022/03/17 04:28:50;;;;;;;40.50;28.13;;;10.50;99.90;;;;;;4868049;29;20025;-72
2022/03/17 04:31:17;;;;;;;45.75;29.73;;;10.60;99.90;;;;;;4867713;29;20042;-73
2022/03/17 04:33:43;;;;;;;44.10;29.20;;;10.70;99.90;;;;;;4883473;29;20037;-72
2022/03/17 04:36:10;;;;;;;48.70;30.15;;;10.70;99.90;;;;;;4867859;29;20102;-72
2022/03/17 04:38:36;;;;;;;43.55;30.27;;;10.70;99.90;;;;;;4883438;29;20049;-71
2022/03/17 04:41:03;;;;;;;47.38;30.38;;;10.70;99.90;;;;;;4883095;29;20093;-74
2022/03/17 04:43:29;;;;;;;48.97;31.90;;;10.70;99.90;;;;;;4867961;29;20042;-74
2022/03/17 04:45:55;;;;;;;49.90;32.28;;;10.60;99.90;;;;;;4883449;29;20089;-71
2022/03/17 04:48:21;;;;;;;50.58;32.42;;;10.60;99.90;;;;;;4867772;29;20062;-73
2022/03/17 04:50:47;;;;;;;50.92;33.00;;;10.50;99.90;;;;;;4883132;29;20046;-72
2022/03/17 04:53:30;;;;;;;53.65;34.50;;;10.50;99.90;;;;;;4868317;29;20030;-73
2022/03/17 04:56:10;;;;;;;57.88;36.60;;;10.40;99.90;;;;;;4867521;29;20046;-71
2022/03/17 04:58:41;;;;;;;63.92;38.15;;;10.40;99.90;;;;;;4883140;29;20046;-71
2022/03/17 05:01:10;;;;;;;61.75;38.03;;;10.30;99.90;;;;;;4867766;29;20041;-72
2022/03/17 05:03:37;;;;;;;69.10;39.78;;;10.20;99.90;;;;;;4867453;29;20038;-72
2022/03/17 05:06:04;;;;;;;64.55;38.58;;;10.10;99.90;;;;;;4868593;29;20065;-73
2022/03/17 05:08:33;;;;;;;69.78;40.10;;;10.10;99.90;;;;;;4867625;29;20101;-72
2022/03/17 05:11:00;;;;;;;73.63;41.00;;;10.00;99.90;;;;;;4882984;29;20063;-71
2022/03/17 05:13:27;;;;;;;75.45;41.42;;;10.00;99.90;;;;;;4867250;29;20046;-72
2022/03/17 05:15:53;;;;;;;80.63;43.67;;;9.90;99.90;;;;;;4867663;29;20030;-71
2022/03/17 05:18:19;;;;;;;73.15;41.78;;;10.00;99.90;;;;;;4867820;29;20474;-71
2022/03/17 05:20:46;;;;;;;75.97;41.70;;;9.90;99.90;;;;;;4867270;29;20066;-73
2022/03/17 05:23:14;;;;;;;74.32;41.80;;;9.90;99.90;;;;;;4867835;29;20029;-72
2022/03/17 05:25:41;;;;;;;67.07;35.80;;;9.80;99.90;;;;;;4867735;29;20038;-71
2022/03/17 05:28:08;;;;;;;59.10;33.88;;;9.90;99.90;;;;;;4867180;29;20034;-72
2022/03/17 05:30:36;;;;;;;31.50;19.15;;;9.80;99.90;;;;;;4867551;29;20037;-72
2022/03/17 05:33:03;;;;;;;23.30;13.93;;;9.70;99.90;;;;;;4867169;29;20085;-71
2022/03/17 05:35:29;;;;;;;17.02;11.13;;;9.60;99.90;;;;;;4867195;29;20066;-70
2022/03/17 05:37:56;;;;;;;15.93;10.18;;;9.50;99.90;;;;;;4882367;29;20095;-71
2022/03/17 05:40:23;;;;;;;16.08;10.50;;;9.30;99.90;;;;;;4882580;29;20173;-71
2022/03/17 05:42:55;;;;;;;15.20;10.65;;;9.20;99.90;;;;;;4867117;29;20026;-70
2022/03/17 05:45:22;;;;;;;13.82;10.60;;;9.00;99.90;;;;;;4867472;29;20057;-70
2022/03/17 05:47:50;;;;;;;17.00;11.45;;;8.90;99.90;;;;;;4866383;29;20046;-70
2022/03/17 05:50:20;;;;;;;17.75;11.27;;;8.80;99.90;;;;;;4866776;29;20061;-72
2022/03/17 05:52:47;;;;;;;13.55;10.68;;;8.80;99.90;;;;;;4867601;29;20402;-70
2022/03/17 05:55:21;;;;;;;13.93;10.45;;;8.60;99.90;;;;;;4867000;29;20030;-71
2022/03/17 05:57:49;;;;;;;14.55;10.95;;;8.60;99.90;;;;;;4867481;29;20037;-72
2022/03/17 06:00:18;;;;;;;13.90;10.70;;;8.60;99.90;;;;;;4866485;29;20074;-71
2022/03/17 06:02:44;;;;;;;11.80;10.50;;;8.50;99.90;;;;;;4866146;29;20082;-70
2022/03/17 06:05:12;;;;;;;15.57;10.68;;;8.50;99.90;;;;;;4867011;29;20308;-70
2022/03/17 06:07:38;;;;;;;22.88;16.80;;;8.40;99.90;;;;;;4866694;29;20040;-69
2022/03/17 06:10:06;;;;;;;16.70;11.68;;;8.40;99.90;;;;;;4866674;29;20038;-69
2022/03/17 06:12:32;;;;;;;20.58;12.60;;;8.40;99.90;;;;;;4866253;29;20042;-70
2022/03/17 06:14:58;;;;;;;16.85;11.68;;;8.30;99.90;;;;;;4865892;29;20064;-72
2022/03/17 06:17:39;;;;;;;17.73;11.95;;;8.30;99.90;;;;;;4865722;29;20057;-71
2022/03/17 06:20:06;;;;;;;24.65;12.40;;;8.30;99.90;;;;;;4863756;29;20098;-71
2022/03/17 06:22:32;;;;;;;19.92;12.10;;;8.30;99.90;;;;;;4866889;29;20042;-70
2022/03/17 06:24:57;;;;;;;21.05;11.35;;;8.20;99.90;;;;;;4867005;29;20064;-70
2022/03/17 06:27:24;;;;;;;20.23;12.48;;;8.30;99.90;;;;;;4881329;29;20042;-72
2022/03/17 06:29:49;;;;;;;23.23;12.15;;;8.20;99.90;;;;;;4866541;29;20046;-70
2022/03/17 06:32:18;;;;;;;17.73;11.98;;;8.20;99.90;;;;;;4865905;29;20141;-71
2022/03/17 06:34:43;;;;;;;22.60;12.65;;;8.20;99.90;;;;;;4866006;29;20046;-71
2022/03/17 06:37:09;;;;;;;20.73;10.77;;;8.20;99.90;;;;;;4865688;29;20059;-70
2022/03/17 06:39:35;;;;;;;20.55;10.50;;;8.20;99.90;;;;;;4865959;29;20030;-72
2022/03/17 06:42:00;;;;;;;19.33;10.23;;;8.20;99.90;;;;;;4866359;29;20038;-70
2022/03/17 06:44:26;;;;;;;19.63;9.95;;;8.20;99.90;;;;;;4881192;29;20130;-72
2022/03/17 06:46:52;;;;;;;22.35;11.13;;;8.10;99.90;;;;;;4865303;29;20030;-72
2022/03/17 06:49:17;;;;;;;15.30;9.45;;;8.10;99.90;;;;;;4865886;29;20029;-72
2022/03/17 06:51:43;;;;;;;22.08;10.07;;;8.10;99.90;;;;;;4864713;29;20053;-70
2022/03/17 06:54:08;;;;;;;24.00;9.90;;;8.10;99.90;;;;;;4849766;29;20022;-73
2022/03/17 06:56:34;;;;;;;26.75;10.27;;;8.10;99.90;;;;;;4850032;29;20048;-71
2022/03/17 06:59:00;;;;;;;25.67;10.35;;;8.10;99.90;;;;;;4864509;29;20044;-72
2022/03/17 07:01:25;;;;;;;26.50;9.77;;;8.00;99.90;;;;;;4865031;29;20070;-72
2022/03/17 07:03:51;;;;;;;18.75;9.77;;;8.00;99.90;;;;;;4865316;29;20038;-70
2022/03/17 07:06:16;;;;;;;13.05;8.07;;;8.00;99.90;;;;;;4864728;29;20046;-71
2022/03/17 07:08:42;;;;;;;17.80;8.52;;;8.00;99.90;;;;;;4864717;29;20049;-71
2022/03/17 07:11:08;;;;;;;17.35;7.95;;;8.00;99.90;;;;;;4864183;29;20097;-73
2022/03/17 07:13:33;;;;;;;16.92;7.65;;;8.00;99.90;;;;;;4864589;29;20097;-72
2022/03/17 07:16:00;;;;;;;16.92;6.32;;;8.00;99.90;;;;;;4864981;29;20034;-74
2022/03/17 07:18:26;;;;;;;14.23;4.65;;;8.00;99.90;;;;;;4865154;29;20061;-71
2022/03/17 07:20:56;;;;;;;14.15;5.60;;;8.00;99.90;;;;;;4864888;29;20045;-70
2022/03/17 07:23:21;;;;;;;15.90;5.65;;;8.00;99.90;;;;;;4864626;29;20050;-72
2022/03/17 07:25:47;;;;;;;9.93;4.65;;;8.00;99.90;;;;;;4865088;29;20062;-70
2022/03/17 07:28:13;;;;;;;14.15;4.25;;;8.00;99.90;;;;;;4864738;29;20049;-70
2022/03/17 07:30:39;;;;;;;16.42;3.92;;;8.00;99.90;;;;;;4864689;29;20093;-70
2022/03/17 07:33:05;;;;;;;12.25;4.07;;;8.00;99.90;;;;;;4863893;29;20055;-71
2022/03/17 07:35:31;;;;;;;11.63;3.72;;;8.00;99.90;;;;;;4864348;29;20059;-72
2022/03/17 07:37:58;;;;;;;10.02;4.00;;;8.10;99.90;;;;;;4864399;29;20037;-71
2022/03/17 07:40:25;;;;;;;11.75;3.40;;;8.10;99.90;;;;;;4865534;29;20065;-72
2022/03/17 07:42:50;;;;;;;12.75;3.20;;;8.10;99.90;;;;;;4865015;29;20045;-73
2022/03/17 07:45:16;;;;;;;12.13;3.00;;;8.10;99.90;;;;;;4845514;29;20059;-71
2022/03/17 07:47:47;;;;;;;15.63;3.83;;;8.10;99.90;;;;;;4860622;29;20035;-70
2022/03/17 07:50:13;;;;;;;14.68;3.50;;;8.00;99.90;;;;;;4861003;29;20060;-70
2022/03/17 07:52:39;;;;;;;19.10;3.63;;;8.10;99.90;;;;;;4846262;29;20051;-73
2022/03/17 07:55:05;;;;;;;20.27;4.53;;;8.00;99.90;;;;;;4846224;29;20042;-73
2022/03/17 07:57:35;;;;;;;16.38;4.00;;;8.00;99.90;;;;;;4861197;29;20049;-73
2022/03/17 08:00:01;;;;;;;16.20;3.65;;;8.00;99.90;;;;;;4846317;29;20054;-72
2022/03/17 08:02:27;;;;;;;15.38;4.03;;;8.00;99.90;;;;;;4860698;29;20038;-71
2022/03/17 08:04:53;;;;;;;14.65;2.97;;;8.00;99.90;;;;;;4860989;29;20038;-71
2022/03/17 08:07:19;;;;;;;17.02;3.42;;;8.00;99.90;;;;;;4845639;29;20072;-73
2022/03/17 08:09:45;;;;;;;16.17;4.10;;;8.00;99.90;;;;;;4845467;29;20053;-71
2022/03/17 08:12:11;;;;;;;8.52;2.10;;;8.00;99.90;;;;;;4845922;29;20062;-72
2022/03/17 08:14:37;;;;;;;14.27;2.35;;;8.00;99.90;;;;;;4845295;29;20061;-71
2022/03/17 08:17:03;;;;;;;9.98;2.33;;;7.90;99.90;;;;;;4845564;29;20039;-73
2022/03/17 08:19:31;;;;;;;11.35;1.65;;;7.90;99.90;;;;;;4845935;29;20041;-71
2022/03/17 08:21:57;;;;;;;15.43;2.28;;;8.00;99.90;;;;;;4860356;29;20053;-74
2022/03/17 08:24:25;;;;;;;11.10;2.13;;;8.00;99.90;;;;;;4862482;29;20038;-71
2022/03/17 08:26:53;;;;;;;10.73;2.00;;;8.00;99.90;;;;;;4863050;29;20048;-74
2022/03/17 08:29:18;;;;;;;15.13;2.20;;;8.00;99.90;;;;;;4863096;29;20098;-71
2022/03/17 08:31:44;;;;;;;11.43;2.13;;;8.00;99.90;;;;;;4878708;29;20078;-74
2022/03/17 08:34:10;;;;;;;11.93;2.33;;;8.00;99.90;;;;;;4863537;29;20069;-71
2022/03/17 08:36:35;;;;;;;14.27;1.92;;;8.00;99.90;;;;;;4863267;29;20045;-71
2022/03/17 08:39:01;;;;;;;10.95;1.80;;;8.00;99.90;;;;;;4863048;29;20041;-71
2022/03/17 08:41:27;;;;;;;15.73;2.85;;;8.00;99.90;;;;;;4863198;29;20126;-71
2022/03/17 08:43:53;;;;;;;16.23;1.95;;;8.00;99.90;;;;;;4881218;29;20038;-74
2022/03/17 08:49:22;;;;;;;44.25;14.75;;;8.00;99.90;;;;;;4867504;29;20046;-78
2022/03/17 08:51:52;;;;;;;13.98;3.35;;;7.90;99.90;;;;;;4866415;29;20520;-74
2022/03/17 08:54:23;;;;;;;17.38;2.13;;;7.90;99.90;;;;;;4875210;29;20078;-71
2022/03/17 08:56:59;;;;;;;16.42;2.30;;;7.90;99.90;;;;;;4866893;29;20070;-71
2022/03/17 08:59:36;;;;;;;16.05;2.20;;;7.90;99.90;;;;;;4867181;29;20061;-73
2022/03/17 09:02:05;;;;;;;13.88;2.45;;;7.90;99.90;;;;;;4865913;29;20042;-70
2022/03/17 09:04:32;;;;;;;9.38;1.88;;;7.90;99.90;;;;;;4882096;29;20028;-72
2022/03/17 09:06:59;;;;;;;16.08;2.60;;;7.90;99.90;;;;;;4867134;29;20026;-71
2022/03/17 09:09:36;;;;;;;20.20;2.90;;;7.90;99.90;;;;;;4866831;29;20049;-75
2022/03/17 09:12:05;;;;;;;14.80;2.20;;;7.90;99.90;;;;;;4867799;29;20038;-75
2022/03/17 09:14:44;;;;;;;13.05;2.03;;;7.90;99.90;;;;;;4866207;29;20097;-73
2022/03/17 09:17:10;;;;;;;14.43;3.28;;;7.90;99.90;;;;;;4865174;29;20041;-71
2022/03/17 09:19:38;;;;;;;15.00;2.40;;;7.90;99.90;;;;;;4865607;29;20054;-74
2022/03/17 09:22:04;;;;;;;17.80;2.13;;;7.80;99.90;;;;;;4865499;29;20061;-71
2022/03/17 09:24:30;;;;;;;11.68;2.58;;;7.80;99.90;;;;;;4865074;29;20041;-71
2022/03/17 09:26:57;;;;;;;13.80;2.45;;;7.90;99.90;;;;;;4866553;29;20029;-73
2022/03/17 09:29:23;;;;;;;14.40;2.60;;;7.90;99.90;;;;;;4881088;29;20076;-72
2022/03/17 09:31:49;;;;;;;18.50;2.45;;;7.90;99.90;;;;;;4866388;29;20091;-73
2022/03/17 09:34:14;;;;;;;13.60;2.25;;;8.00;99.90;;;;;;4865650;29;20033;-71
2022/03/17 09:36:40;;;;;;;15.43;2.97;;;8.10;99.90;;;;;;4865573;29;20052;-72
2022/03/17 09:41:52;;;;;;;15.23;2.33;;;8.10;99.90;;;;;;4865961;29;20056;-74
2022/03/17 09:44:18;;;;;;;14.27;2.70;;;8.20;99.90;;;;;;4865278;29;20063;-71
2022/03/17 09:46:48;;;;;;;11.52;1.70;;;8.20;99.90;;;;;;4866046;29;20038;-71
2022/03/17 09:49:14;;;;;;;16.88;2.55;;;8.20;99.90;;;;;;4864544;29;20084;-72
2022/03/17 09:51:44;;;;;;;13.88;2.10;;;8.20;99.90;;;;;;4849388;29;20053;-71
2022/03/17 09:54:10;;;;;;;13.60;2.15;;;8.20;99.90;;;;;;4864073;29;20071;-72
2022/03/17 09:56:36;;;;;;;15.93;2.80;;;8.20;99.90;;;;;;4865215;29;20046;-71
2022/03/17 09:59:02;;;;;;;21.17;5.00;;;8.20;99.90;;;;;;4880281;29;20037;-72
2022/03/17 10:01:30;;;;;;;15.30;2.70;;;8.20;99.90;;;;;;4865909;29;20559;-71
2022/03/17 10:04:01;;;;;;;11.77;1.92;;;8.30;99.90;;;;;;4865641;29;20121;-74
2022/03/17 10:06:28;;;;;;;16.85;2.97;;;8.30;99.90;;;;;;4865517;29;20113;-72
2022/03/17 10:08:55;;;;;;;10.93;1.77;;;8.40;99.90;;;;;;4864985;29;20050;-71
2022/03/17 10:11:37;;;;;;;18.00;2.78;;;8.40;99.90;;;;;;4846780;29;20049;-75
2022/03/17 10:14:07;;;;;;;9.52;1.50;;;8.40;99.90;;;;;;4846790;29;20038;-71
2022/03/17 10:16:33;;;;;;;;;;;8.50;99.90;;;;;;4846917;29;20037;-71
2022/03/17 10:19:08;;;;;;;9.25;2.00;;;8.50;99.90;;;;;;4846878;29;20033;-71
2022/03/17 10:21:34;;;;;;;13.60;2.60;;;8.50;99.90;;;;;;4846805;29;20053;-72
2022/03/17 10:24:07;;;;;;;14.65;3.42;;;8.50;99.90;;;;;;4848122;29;20065;-74
2022/03/17 10:26:46;;;;;;;23.45;3.42;;;8.60;99.90;;;;;;4847489;29;20034;-72
2022/03/17 10:29:17;;;;;;;12.97;1.97;;;8.70;99.90;;;;;;4833622;29;20073;-71
2022/03/17 10:31:59;;;;;;;12.73;2.95;;;8.80;99.90;;;;;;4847745;29;20023;-73
2022/03/17 10:34:32;;;;;;;17.83;2.88;;;8.90;99.90;;;;;;4847774;29;20037;-71
2022/03/17 10:37:11;;;;;;;13.57;2.63;;;9.10;99.90;;;;;;4847117;29;20066;-74
2022/03/17 10:39:45;;;;;;;13.10;3.33;;;9.10;99.90;;;;;;4847013;29;20030;-71
2022/03/17 10:42:17;;;;;;;11.73;2.60;;;9.30;99.90;;;;;;4862065;29;20026;-75
2022/03/17 10:44:51;;;;;;;16.92;5.32;;;9.70;99.90;;;;;;4847366;29;20089;-74
2022/03/17 10:47:28;;;;;;;13.65;3.78;;;9.90;99.90;;;;;;4863198;29;20050;-71
2022/03/17 10:49:59;;;;;;;16.50;4.32;;;10.00;99.90;;;;;;4865384;29;20042;-72
2022/03/17 10:52:24;;;;;;;18.58;4.63;;;10.00;99.90;;;;;;4865786;29;20077;-72
2022/03/17 10:54:57;;;;;;;12.98;3.65;;;10.00;99.90;;;;;;4866266;29;20033;-72
2022/03/17 10:57:25;;;;;;;9.68;2.10;;;10.00;99.90;;;;;;4865487;29;20044;-71
2022/03/17 10:59:54;;;;;;;9.75;2.30;;;10.10;99.90;;;;;;4865408;29;20034;-72
2022/03/17 11:02:25;;;;;;;9.68;1.80;;;10.30;99.90;;;;;;4862481;29;20039;-73
2022/03/17 11:04:51;;;;;;;9.25;2.03;;;10.50;99.90;;;;;;4847662;29;20027;-72
2022/03/17 11:07:19;;;;;;;10.60;2.10;;;10.80;99.90;;;;;;4847260;29;20033;-73
2022/03/17 11:09:46;;;;;;;7.60;1.90;;;11.00;99.90;;;;;;4851519;29;20034;-72
2022/03/17 11:12:17;;;;;;;9.73;1.60;;;11.30;99.90;;;;;;4865755;29;20129;-71
2022/03/17 11:14:49;;;;;;;10.32;1.40;;;11.30;99.90;;;;;;4865569;29;20089;-73
2022/03/17 11:17:24;;;;;;;15.45;2.20;;;11.20;99.90;;;;;;4865467;29;20038;-75
2022/03/17 11:19:52;;;;;;;14.95;1.80;;;11.20;99.90;;;;;;4865954;29;20038;-71
2022/03/17 11:22:22;;;;;;;10.65;1.42;;;11.30;99.90;;;;;;4865597;29;20044;-71
2022/03/17 11:25:28;;;;;;;11.88;1.90;;;11.10;99.90;;;;;;4865564;29;20042;-74
2022/03/17 11:28:01;;;;;;;9.18;1.75;;;11.30;99.90;;;;;;4865944;29;20033;-72
2022/03/17 11:30:44;;;;;;;10.15;1.70;;;11.50;99.90;;;;;;4862529;29;20042;-72
2022/03/17 11:33:43;;;;;;;14.23;2.13;;;11.80;99.90;;;;;;4865193;29;20058;-71
2022/03/17 11:36:08;;;;;;;7.72;1.50;;;11.60;99.90;;;;;;4854992;29;20058;-71
2022/03/17 11:38:37;;;;;;;11.40;1.85;;;11.50;99.90;;;;;;4865266;29;20043;-72
2022/03/17 11:41:13;;;;;;;9.45;1.90;;;11.50;99.90;;;;;;4865694;29;20038;-72
2022/03/17 11:43:40;;;;;;;11.38;1.75;;;11.30;99.90;;;;;;4865600;29;20170;-73
2022/03/17 11:46:11;;;;;;;7.82;2.15;;;11.00;99.90;;;;;;4879894;29;20069;-72
2022/03/17 11:48:37;;;;;;;10.52;2.83;;;10.80;99.90;;;;;;4865901;29;20065;-74
2022/03/17 11:51:05;;;;;;;31.58;8.95;;;10.60;99.90;;;;;;4880072;29;20087;-72
2022/03/17 11:53:51;;;;;;;17.27;4.68;;;10.60;99.90;;;;;;4862348;29;20042;-72
2022/03/17 11:56:43;;;;;;;26.73;9.95;;;10.70;99.90;;;;;;4864517;29;20046;-73
2022/03/17 11:59:13;;;;;;;19.90;6.47;;;10.80;99.90;;;;;;4863969;29;20056;-72
2022/03/17 12:01:46;;;;;;;14.45;5.30;;;11.10;99.90;;;;;;4865537;29;20069;-74
2022/03/17 12:04:31;;;;;;;19.15;6.63;;;11.40;97.90;;;;;;4865492;29;20038;-73
2022/03/17 12:07:09;;;;;;;12.25;4.03;;;11.70;97.50;;;;;;4865055;29;20034;-73
2022/03/17 12:09:43;;;;;;;11.43;2.55;;;11.90;95.30;;;;;;4866848;29;20053;-72
2022/03/17 12:12:26;;;;;;;15.07;3.50;;;11.90;96.60;;;;;;4865045;29;20030;-72
2022/03/17 12:14:54;;;;;;;13.43;2.50;;;11.90;94.30;;;;;;4864361;29;20042;-73
2022/03/17 12:17:27;;;;;;;13.43;3.53;;;11.70;97.60;;;;;;4865463;29;20058;-74
2022/03/17 12:20:11;;;;;;;11.63;2.88;;;11.60;97.10;;;;;;4868235;29;20044;-72
2022/03/17 12:22:47;;;;;;;13.75;5.05;;;11.50;97.50;;;;;;4852415;29;20057;-74
2022/03/17 12:25:26;;;;;;;10.05;2.72;;;11.50;98.50;;;;;;4868343;29;20071;-72
2022/03/17 12:28:00;;;;;;;9.88;2.78;;;11.50;98.20;;;;;;4883603;29;20055;-72
2022/03/17 12:30:26;;;;;;;17.10;3.47;;;11.90;98.50;;;;;;4852590;29;20497;-72
2022/03/17 12:33:16;;;;;;;10.45;2.45;;;12.30;98.80;;;;;;4868073;29;20037;-72
2022/03/17 12:35:45;;;;;;;8.95;2.70;;;12.80;94.30;;;;;;4868040;29;20041;-72
2022/03/17 12:38:19;;;;;;;11.27;2.72;;;13.00;93.60;;;;;;4867996;29;20036;-72
2022/03/17 12:40:47;;;;;;;14.77;2.97;;;12.90;92.20;;;;;;4868582;29;20066;-72
2022/03/17 12:43:16;;;;;;;10.30;2.47;;;13.00;93.40;;;;;;4851643;29;20036;-74
2022/03/17 12:45:47;;;;;;;8.40;2.45;;;13.00;88.00;;;;;;4868407;29;20038;-73
2022/03/17 12:48:16;;;;;;;10.18;1.85;;;13.10;91.60;;;;;;4867679;29;20030;-72
2022/03/17 12:50:45;;;;;;;5.82;1.75;;;13.30;90.90;;;;;;4868721;29;20053;-72
2022/03/17 12:53:11;;;;;;;15.73;2.10;;;13.40;89.70;;;;;;4867917;29;20042;-72
2022/03/17 12:55:37;;;;;;;7.60;1.67;;;13.70;88.20;;;;;;4868470;29;20037;-73
2022/03/17 12:58:04;;;;;;;11.85;1.75;;;13.80;86.00;;;;;;4869495;29;20068;-75
2022/03/17 13:00:30;;;;;;;8.80;2.00;;;13.90;84.30;;;;;;4869430;29;20073;-75